createdAt,value
2023-02-08T00:01:08.568Z,-8.07
2023-02-08T00:02:40.314Z,-8.08
2023-02-08T00:04:12.078Z,-8.10
2023-02-08T00:05:44.700Z,-8.12
2023-02-08T00:07:16.466Z,-8.14
2023-02-08T00:08:48.193Z,-8.16
2023-02-08T00:10:20.097Z,-8.17
2023-02-08T00:11:51.918Z,-8.19
2023-02-08T00:13:24.069Z,-8.21
2023-02-08T00:14:55.762Z,-8.22
2023-02-08T00:16:27.856Z,-8.23
2023-02-08T00:17:59.597Z,-8.23
2023-02-08T00:19:31.345Z,-8.24
2023-02-08T00:21:14.519Z,-8.25
2023-02-08T00:22:46.406Z,-8.26
2023-02-08T00:24:18.126Z,-8.26
2023-02-08T00:25:50.237Z,-8.26
2023-02-08T00:27:21.941Z,-8.27
2023-02-08T00:28:54.074Z,-8.29
2023-02-08T00:30:25.765Z,-8.28
2023-02-08T00:31:57.518Z,-8.31
2023-02-08T00:33:29.249Z,-8.32
2023-02-08T00:35:00.993Z,-8.32
2023-02-08T00:36:32.717Z,-8.34
2023-02-08T00:38:04.739Z,-8.37
2023-02-08T00:39:36.525Z,-8.37
2023-02-08T00:41:08.737Z,-8.38
2023-02-08T00:42:40.698Z,-8.39
2023-02-08T00:44:13.502Z,-8.41
2023-02-08T00:45:45.231Z,-8.43
2023-02-08T00:47:16.954Z,-8.44
2023-02-08T00:48:48.659Z,-8.46
2023-02-08T00:50:20.435Z,-8.48
2023-02-08T00:51:52.152Z,-8.50
2023-02-08T00:53:23.864Z,-8.52
2023-02-08T00:54:55.583Z,-8.53
2023-02-08T00:56:27.669Z,-8.54
2023-02-08T00:57:59.382Z,-8.56
2023-02-08T00:59:31.103Z,-8.56
2023-02-08T01:01:05.081Z,-8.57
2023-02-08T01:02:38.936Z,-8.57
2023-02-08T01:04:10.779Z,-8.57
2023-02-08T01:05:43.045Z,-8.57
2023-02-08T01:07:14.896Z,-8.58
2023-02-08T01:08:46.872Z,-8.58
2023-02-08T01:10:20.276Z,-8.57
2023-02-08T01:11:52.147Z,-8.57
2023-02-08T01:13:23.857Z,-8.58
2023-02-08T01:14:55.574Z,-8.58
2023-02-08T01:16:30.508Z,-8.57
2023-02-08T01:18:05.296Z,-8.59
2023-02-08T01:19:37.086Z,-8.59
2023-02-08T01:21:12.097Z,-8.60
2023-02-08T01:22:43.822Z,-8.60
2023-02-08T01:24:18.679Z,-8.62
2023-02-08T01:25:50.411Z,-8.62
2023-02-08T01:27:22.383Z,-8.61
2023-02-08T01:28:55.634Z,-8.65
2023-02-08T01:30:27.923Z,-8.65
2023-02-08T01:31:59.704Z,-8.66
2023-02-08T01:33:35.623Z,-8.68
2023-02-08T01:35:07.839Z,-8.69
2023-02-08T01:36:41.906Z,-8.70
2023-02-08T01:38:13.598Z,-8.72
2023-02-08T01:39:45.304Z,-8.73
2023-02-08T01:41:26.466Z,-8.75
2023-02-08T01:42:58.235Z,-8.78
2023-02-08T01:45:07.682Z,-8.83
2023-02-08T01:46:42.207Z,-8.83
2023-02-08T01:48:20.101Z,-8.88
2023-02-08T01:49:52.200Z,-8.89
2023-02-08T01:51:29.281Z,-8.90
2023-02-08T01:53:01.914Z,-8.92
2023-02-08T01:54:40.655Z,-8.94
2023-02-08T01:56:17.768Z,-8.97
2023-02-08T01:57:54.950Z,-8.98
2023-02-08T01:59:34.154Z,-8.98
2023-02-08T02:01:08.508Z,-8.99
2023-02-08T02:02:41.827Z,-9.02
2023-02-08T02:04:14.236Z,-9.01
2023-02-08T02:05:52.347Z,-9.04
2023-02-08T02:07:28.719Z,-9.04
2023-02-08T02:09:17.814Z,-9.06
2023-02-08T02:10:50.558Z,-9.03
2023-02-08T02:12:22.388Z,-9.06
2023-02-08T02:13:55.607Z,-9.05
2023-02-08T02:15:27.344Z,-9.04
2023-02-08T02:17:02.134Z,-9.06
2023-02-08T02:18:34.802Z,-9.05
2023-02-08T02:20:37.699Z,-9.08
2023-02-08T02:22:29.180Z,-9.07
2023-02-08T02:24:38.636Z,-9.10
2023-02-08T02:26:47.457Z,-9.12
2023-02-08T02:28:52.899Z,-9.13
2023-02-08T02:30:48.408Z,-9.17
2023-02-08T02:32:43.901Z,-9.20
2023-02-08T02:34:34.439Z,-9.20
2023-02-08T02:36:19.136Z,-9.21
2023-02-08T02:37:57.989Z,-9.21
2023-02-08T02:39:43.321Z,-9.21
2023-02-08T02:42:00.435Z,-9.23
2023-02-08T02:43:43.049Z,-9.24
2023-02-08T02:45:30.658Z,-9.25
2023-02-08T02:47:28.749Z,-9.26
2023-02-08T02:49:08.991Z,-9.25
2023-02-08T02:50:45.800Z,-9.24
2023-02-08T02:52:28.399Z,-9.26
2023-02-08T02:54:18.231Z,-9.27
2023-02-08T02:55:56.560Z,-9.25
2023-02-08T02:57:34.892Z,-9.23
2023-02-08T02:59:10.723Z,-9.25
2023-02-08T03:00:42.666Z,-9.24
2023-02-08T03:02:14.842Z,-9.23
2023-02-08T03:03:46.529Z,-9.24
2023-02-08T03:05:18.808Z,-9.21
2023-02-08T03:07:27.960Z,-9.24
2023-02-08T03:09:14.801Z,-9.20
2023-02-08T03:11:11.419Z,-9.20
2023-02-08T03:12:58.024Z,-9.21
2023-02-08T03:14:45.599Z,-9.20
2023-02-08T03:16:31.722Z,-9.18
2023-02-08T03:18:12.282Z,-9.19
2023-02-08T03:19:49.755Z,-9.16
2023-02-08T03:21:32.365Z,-9.18
2023-02-08T03:23:19.488Z,-9.16
2023-02-08T03:25:12.484Z,-9.16
2023-02-08T03:27:04.563Z,-9.16
2023-02-08T03:28:56.843Z,-9.14
2023-02-08T03:30:35.980Z,-9.14
2023-02-08T03:32:17.461Z,-9.14
2023-02-08T03:33:53.284Z,-9.15
2023-02-08T03:35:30.016Z,-9.11
2023-02-08T03:37:08.508Z,-9.13
2023-02-08T03:38:43.947Z,-9.12
2023-02-08T03:40:28.166Z,-9.14
2023-02-08T03:42:04.026Z,-9.13
2023-02-08T03:43:45.017Z,-9.14
2023-02-08T03:45:21.970Z,-9.13
2023-02-08T03:47:07.094Z,-9.16
2023-02-08T03:48:45.345Z,-9.14
2023-02-08T03:50:18.953Z,-9.15
2023-02-08T03:51:53.526Z,-9.17
2023-02-08T03:53:27.692Z,-9.18
2023-02-08T03:55:08.017Z,-9.20
2023-02-08T03:56:53.963Z,-9.21
2023-02-08T03:58:32.520Z,-9.20
2023-02-08T04:00:11.019Z,-9.23
2023-02-08T04:01:51.867Z,-9.24
2023-02-08T04:03:27.277Z,-9.25
2023-02-08T04:05:00.878Z,-9.25
2023-02-08T04:06:32.664Z,-9.27
2023-02-08T04:08:04.611Z,-9.26
2023-02-08T04:09:38.760Z,-9.29
2023-02-08T04:11:10.615Z,-9.31
2023-02-08T04:12:43.332Z,-9.30
2023-02-08T04:14:15.133Z,-9.32
2023-02-08T04:15:46.952Z,-9.33
2023-02-08T04:17:18.757Z,-9.33
2023-02-08T04:18:50.461Z,-9.35
2023-02-08T04:20:22.470Z,-9.36
2023-02-08T04:21:54.425Z,-9.38
2023-02-08T04:23:26.206Z,-9.38
2023-02-08T04:24:57.910Z,-9.40
2023-02-08T04:26:29.635Z,-9.41
2023-02-08T04:28:01.374Z,-9.41
2023-02-08T04:29:33.130Z,-9.40
2023-02-08T04:31:05.093Z,-9.41
2023-02-08T04:32:36.834Z,-9.44
2023-02-08T04:34:08.537Z,-9.44
2023-02-08T04:35:43.862Z,-9.46
2023-02-08T04:37:15.871Z,-9.46
2023-02-08T04:38:47.648Z,-9.47
2023-02-08T04:40:19.347Z,-9.48
2023-02-08T04:41:51.057Z,-9.49
2023-02-08T04:43:22.795Z,-9.49
2023-02-08T04:44:54.528Z,-9.49
2023-02-08T04:46:26.259Z,-9.49
2023-02-08T04:47:59.278Z,-9.50
2023-02-08T04:49:30.982Z,-9.51
2023-02-08T04:51:02.671Z,-9.50
2023-02-08T04:52:34.445Z,-9.51
2023-02-08T04:54:06.163Z,-9.50
2023-02-08T04:55:41.188Z,-9.51
2023-02-08T04:57:14.159Z,-9.51
2023-02-08T04:58:45.888Z,-9.52
2023-02-08T05:00:18.533Z,-9.53
2023-02-08T05:01:50.446Z,-9.53
2023-02-08T05:03:22.285Z,-9.53
2023-02-08T05:04:54.081Z,-9.54
2023-02-08T05:06:25.885Z,-9.55
2023-02-08T05:07:57.629Z,-9.54
2023-02-08T05:09:29.425Z,-9.54
2023-02-08T05:11:01.103Z,-9.55
2023-02-08T05:12:32.847Z,-9.53
2023-02-08T05:14:05.031Z,-9.55
2023-02-08T05:15:36.734Z,-9.53
2023-02-08T05:17:08.604Z,-9.54
2023-02-08T05:18:40.447Z,-9.55
2023-02-08T05:20:13.407Z,-9.55
2023-02-08T05:21:45.158Z,-9.55
2023-02-08T05:23:16.983Z,-9.55
2023-02-08T05:24:48.815Z,-9.56
2023-02-08T05:26:20.863Z,-9.55
2023-02-08T05:27:52.994Z,-9.54
2023-02-08T05:29:24.907Z,-9.54
2023-02-08T05:30:56.715Z,-9.51
2023-02-08T05:32:28.553Z,-9.52
2023-02-08T05:34:00.256Z,-9.50
2023-02-08T05:35:32.037Z,-9.48
2023-02-08T05:37:03.757Z,-9.45
2023-02-08T05:38:35.463Z,-9.42
2023-02-08T05:40:07.935Z,-9.39
2023-02-08T05:41:39.675Z,-9.36
2023-02-08T05:43:11.493Z,-9.34
2023-02-08T05:44:43.213Z,-9.31
2023-02-08T05:46:14.964Z,-9.27
2023-02-08T05:47:49.502Z,-9.23
2023-02-08T05:49:21.232Z,-9.20
2023-02-08T05:50:52.971Z,-9.17
2023-02-08T05:52:24.753Z,-9.11
2023-02-08T05:53:56.492Z,-9.06
2023-02-08T05:55:28.810Z,-9.02
2023-02-08T05:57:00.522Z,-8.94
2023-02-08T05:58:33.363Z,-8.87
2023-02-08T06:00:06.111Z,-8.79
2023-02-08T06:01:47.901Z,-8.72
2023-02-08T06:03:19.703Z,-8.67
2023-02-08T06:04:51.821Z,-8.61
2023-02-08T06:06:23.601Z,-8.58
2023-02-08T06:07:55.350Z,-8.52
2023-02-08T06:09:27.117Z,-8.45
2023-02-08T06:10:58.850Z,-8.42
2023-02-08T06:12:30.628Z,-8.36
2023-02-08T06:14:03.376Z,-8.33
2023-02-08T06:15:35.112Z,-8.27
2023-02-08T06:17:06.865Z,-8.21
2023-02-08T06:18:38.596Z,-8.19
2023-02-08T06:20:10.780Z,-8.15
2023-02-08T06:21:42.575Z,-8.13
2023-02-08T06:23:14.518Z,-8.11
2023-02-08T06:24:46.249Z,-8.07
2023-02-08T06:26:17.950Z,-8.07
2023-02-08T06:27:49.717Z,-8.02
2023-02-08T06:29:21.503Z,-8.00
2023-02-08T06:30:53.219Z,-7.98
2023-02-08T06:32:26.204Z,-7.96
2023-02-08T06:33:57.973Z,-7.93
2023-02-08T06:35:29.708Z,-7.90
2023-02-08T06:37:02.392Z,-7.86
2023-02-08T06:38:34.150Z,-7.88
2023-02-08T06:40:06.914Z,-7.86
2023-02-08T06:41:38.629Z,-7.79
2023-02-08T06:43:10.333Z,-7.77
2023-02-08T06:44:54.200Z,-7.74
2023-02-08T06:46:26.604Z,-7.71
2023-02-08T06:47:58.352Z,-7.68
2023-02-08T06:49:30.116Z,-7.65
2023-02-08T06:51:02.506Z,-7.63
2023-02-08T06:52:34.964Z,-7.62
2023-02-08T06:54:07.280Z,-7.59
2023-02-08T06:55:39.671Z,-7.59
2023-02-08T06:57:14.501Z,-7.57
2023-02-08T06:58:46.276Z,-7.58
2023-02-08T07:00:18.106Z,-7.55
2023-02-08T07:01:49.855Z,-7.52
2023-02-08T07:03:22.716Z,-7.55
2023-02-08T07:04:54.454Z,-7.52
2023-02-08T07:06:26.205Z,-7.50
2023-02-08T07:07:57.881Z,-7.48
2023-02-08T07:09:29.647Z,-7.46
2023-02-08T07:11:07.026Z,-7.43
2023-02-08T07:12:38.750Z,-7.37
2023-02-08T07:14:13.288Z,-7.37
2023-02-08T07:15:45.224Z,-7.33
2023-02-08T07:17:17.035Z,-7.32
2023-02-08T07:18:48.822Z,-7.30
2023-02-08T07:20:20.624Z,-7.29
2023-02-08T07:21:52.414Z,-7.25
2023-02-08T07:23:24.311Z,-7.25
2023-02-08T07:24:56.057Z,-7.26
2023-02-08T07:26:27.810Z,-7.21
2023-02-08T07:27:59.583Z,-7.20
2023-02-08T07:29:32.406Z,-7.16
2023-02-08T07:31:15.773Z,-7.13
2023-02-08T07:32:47.498Z,-7.08
2023-02-08T07:34:22.048Z,-7.04
2023-02-08T07:35:53.789Z,-7.00
2023-02-08T07:37:26.175Z,-7.01
2023-02-08T07:38:58.008Z,-6.96
2023-02-08T07:40:29.734Z,-6.93
2023-02-08T07:42:01.485Z,-6.91
2023-02-08T07:43:40.390Z,-6.84
2023-02-08T07:45:12.090Z,-6.81
2023-02-08T07:46:43.805Z,-6.79
2023-02-08T07:48:15.551Z,-6.78
2023-02-08T07:49:47.338Z,-6.72
2023-02-08T07:51:19.377Z,-6.68
2023-02-08T07:52:51.124Z,-6.67
2023-02-08T07:54:22.961Z,-6.63
2023-02-08T07:55:54.649Z,-6.62
2023-02-08T07:57:26.680Z,-6.58
2023-02-08T07:58:58.403Z,-6.55
2023-02-08T08:00:30.118Z,-6.49
2023-02-08T08:02:02.170Z,-6.45
2023-02-08T08:03:34.028Z,-6.42
2023-02-08T08:05:06.773Z,-6.38
2023-02-08T08:06:38.692Z,-6.35
2023-02-08T08:08:11.447Z,-6.30
2023-02-08T08:09:43.163Z,-6.27
2023-02-08T08:11:16.499Z,-6.26
2023-02-08T08:12:48.205Z,-6.21
2023-02-08T08:14:20.007Z,-6.19
2023-02-08T08:15:51.763Z,-6.11
2023-02-08T08:17:23.530Z,-6.09
2023-02-08T08:18:55.326Z,-6.06
2023-02-08T08:20:27.368Z,-6.04
2023-02-08T08:21:59.102Z,-5.96
2023-02-08T08:23:33.185Z,-5.92
2023-02-08T08:25:05.266Z,-5.88
2023-02-08T08:26:36.975Z,-5.82
2023-02-08T08:28:08.720Z,-5.77
2023-02-08T08:29:40.491Z,-5.73
2023-02-08T08:31:14.678Z,-5.73
2023-02-08T08:32:46.656Z,-5.64
2023-02-08T08:34:18.379Z,-5.59
2023-02-08T08:35:50.169Z,-5.57
2023-02-08T08:37:22.266Z,-5.50
2023-02-08T08:38:54.015Z,-5.44
2023-02-08T08:40:25.769Z,-5.41
2023-02-08T08:41:59.414Z,-5.38
2023-02-08T08:43:31.128Z,-5.34
2023-02-08T08:45:04.062Z,-5.28
2023-02-08T08:46:36.389Z,-5.24
2023-02-08T08:48:08.152Z,-5.22
2023-02-08T08:49:40.488Z,-5.13
2023-02-08T08:51:12.977Z,-5.06
2023-02-08T08:52:44.761Z,-5.03
2023-02-08T08:54:16.579Z,-4.98
2023-02-08T08:55:48.311Z,-4.94
2023-02-08T08:57:20.072Z,-4.85
2023-02-08T08:58:52.056Z,-4.83
2023-02-08T09:00:23.968Z,-4.78
2023-02-08T09:01:55.753Z,-4.72
2023-02-08T09:03:28.589Z,-4.75
2023-02-08T09:05:05.549Z,-4.67
2023-02-08T09:06:37.510Z,-4.65
2023-02-08T09:08:09.282Z,-4.57
2023-02-08T09:09:41.599Z,-4.55
2023-02-08T09:11:15.217Z,-4.44
2023-02-08T09:12:47.014Z,-4.39
2023-02-08T09:14:18.781Z,-4.31
2023-02-08T09:15:50.523Z,-4.22
2023-02-08T09:17:22.272Z,-4.15
2023-02-08T09:18:54.011Z,-4.08
2023-02-08T09:20:25.709Z,-4.06
2023-02-08T09:21:58.061Z,-4.00
2023-02-08T09:23:29.760Z,-3.95
2023-02-08T09:25:02.209Z,-3.97
2023-02-08T09:26:34.138Z,-3.84
2023-02-08T09:28:06.199Z,-3.74
2023-02-08T09:29:37.930Z,-3.71
2023-02-08T09:31:22.284Z,-3.68
2023-02-08T09:32:54.050Z,-3.61
2023-02-08T09:34:25.764Z,-3.59
2023-02-08T09:35:57.464Z,-3.57
2023-02-08T09:37:29.882Z,-3.44
2023-02-08T09:39:13.874Z,-3.40
2023-02-08T09:40:48.227Z,-3.33
2023-02-08T09:42:41.825Z,-3.27
2023-02-08T09:44:23.659Z,-3.19
2023-02-08T09:46:05.567Z,-3.14
2023-02-08T09:47:42.820Z,-3.15
2023-02-08T09:49:20.184Z,-3.05
2023-02-08T09:51:00.163Z,-3.06
2023-02-08T09:52:49.021Z,-2.97
2023-02-08T09:54:32.506Z,-2.99
2023-02-08T09:56:06.341Z,-2.94
2023-02-08T09:57:38.885Z,-2.89
2023-02-08T09:59:16.454Z,-2.83
2023-02-08T10:00:50.928Z,-2.83
2023-02-08T10:02:31.505Z,-2.78
2023-02-08T10:04:10.246Z,-2.67
2023-02-08T10:05:42.793Z,-2.62
2023-02-08T10:07:14.738Z,-2.57
2023-02-08T10:08:50.753Z,-2.51
2023-02-08T10:10:58.593Z,-2.53
2023-02-08T10:13:08.238Z,-2.45
2023-02-08T10:14:44.324Z,-2.39
2023-02-08T10:16:46.160Z,-2.36
2023-02-08T10:18:19.062Z,-2.29
2023-02-08T10:20:20.603Z,-2.20
2023-02-08T10:22:40.564Z,-2.22
2023-02-08T10:24:36.198Z,-2.18
2023-02-08T10:26:29.448Z,-2.08
2023-02-08T10:28:07.214Z,-1.98
2023-02-08T10:30:06.418Z,-2.04
2023-02-08T10:31:58.085Z,-1.96
2023-02-08T10:33:36.993Z,-1.94
2023-02-08T10:35:17.196Z,-1.82
2023-02-08T10:36:48.909Z,-1.77
2023-02-08T10:38:20.772Z,-1.72
2023-02-08T10:39:52.543Z,-1.64
2023-02-08T10:41:30.656Z,-1.62
2023-02-08T10:43:26.677Z,-1.63
2023-02-08T10:45:23.594Z,-1.54
2023-02-08T10:47:20.811Z,-1.47
2023-02-08T10:49:21.819Z,-1.46
2023-02-08T10:50:53.602Z,-1.34
2023-02-08T10:52:25.406Z,-1.30
2023-02-08T10:53:57.836Z,-1.25
2023-02-08T10:55:31.487Z,-1.16
2023-02-08T10:57:06.572Z,-1.16
2023-02-08T10:58:38.224Z,-1.08
2023-02-08T11:00:41.768Z,-1.12
2023-02-08T11:02:22.223Z,-1.01
2023-02-08T11:04:04.963Z,-1.01
2023-02-08T11:05:38.014Z,-0.97
2023-02-08T11:07:21.422Z,-0.93
2023-02-08T11:08:56.512Z,-0.89
2023-02-08T11:10:28.548Z,-0.87
2023-02-08T11:12:02.333Z,-0.82
2023-02-08T11:13:41.289Z,-0.83
2023-02-08T11:15:27.268Z,-0.76
2023-02-08T11:17:00.403Z,-0.66
2023-02-08T11:18:39.925Z,-0.62
2023-02-08T11:20:25.954Z,-0.46
2023-02-08T11:21:59.101Z,-0.27
2023-02-08T11:23:34.866Z,-0.17
2023-02-08T11:25:07.649Z,0.00
2023-02-08T11:26:40.296Z,0.14
2023-02-08T11:28:30.786Z,0.29
2023-02-08T11:30:14.689Z,0.48
2023-02-08T11:31:55.549Z,0.59
2023-02-08T11:33:29.240Z,0.78
2023-02-08T11:35:11.856Z,0.88
2023-02-08T11:36:47.031Z,1.03
2023-02-08T11:38:22.270Z,1.13
2023-02-08T11:39:59.275Z,1.32
2023-02-08T11:41:31.359Z,1.46
2023-02-08T11:43:04.722Z,1.53
2023-02-08T11:44:43.659Z,1.63
2023-02-08T11:46:23.595Z,1.74
2023-02-08T11:47:55.633Z,1.80
2023-02-08T11:49:37.884Z,1.84
2023-02-08T11:51:13.457Z,1.85
2023-02-08T11:52:57.420Z,1.85
2023-02-08T11:54:33.132Z,2.03
2023-02-08T11:56:16.840Z,2.07
2023-02-08T11:58:01.549Z,2.11
2023-02-08T11:59:33.262Z,2.24
2023-02-08T12:01:17.243Z,2.24
2023-02-08T12:02:50.793Z,2.30
2023-02-08T12:04:22.651Z,2.32
2023-02-08T12:06:18.979Z,2.33
2023-02-08T12:08:05.743Z,2.42
2023-02-08T12:10:19.528Z,2.52
2023-02-08T12:12:06.343Z,2.60
2023-02-08T12:13:50.549Z,2.69
2023-02-08T12:15:48.185Z,2.75
2023-02-08T12:17:48.186Z,2.84
2023-02-08T12:19:25.845Z,2.88
2023-02-08T12:21:07.304Z,2.93
2023-02-08T12:22:43.297Z,2.93
2023-02-08T12:24:36.535Z,2.88
2023-02-08T12:26:17.573Z,2.97
2023-02-08T12:28:19.631Z,2.97
2023-02-08T12:30:22.021Z,3.01
2023-02-08T12:32:34.818Z,2.99
2023-02-08T12:34:25.174Z,3.08
2023-02-08T12:36:12.181Z,3.02
2023-02-08T12:38:09.528Z,3.08
2023-02-08T12:40:18.798Z,3.09
2023-02-08T12:41:59.329Z,3.15
2023-02-08T12:44:16.057Z,3.02
2023-02-08T12:46:13.425Z,3.03
2023-02-08T12:48:04.700Z,3.04
2023-02-08T12:49:42.589Z,3.00
2023-02-08T12:51:23.132Z,3.02
2023-02-08T12:53:03.484Z,3.01
2023-02-08T12:54:51.489Z,2.97
2023-02-08T12:56:38.504Z,2.93
2023-02-08T12:58:28.398Z,2.94
2023-02-08T13:00:07.405Z,2.93
2023-02-08T13:01:51.441Z,2.89
2023-02-08T13:03:38.199Z,2.75
2023-02-08T13:05:16.929Z,2.68
2023-02-08T13:06:53.559Z,2.69
2023-02-08T13:08:38.013Z,2.67
2023-02-08T13:10:27.150Z,2.62
2023-02-08T13:12:08.146Z,2.63
2023-02-08T13:13:41.892Z,2.57
2023-02-08T13:15:30.990Z,2.47
2023-02-08T13:17:27.934Z,2.17
2023-02-08T13:19:12.811Z,2.15
2023-02-08T13:20:51.416Z,2.03
2023-02-08T13:22:23.611Z,1.98
2023-02-08T13:23:55.420Z,1.92
2023-02-08T13:25:35.993Z,1.71
2023-02-08T13:27:15.229Z,1.71
2023-02-08T13:28:54.140Z,1.65
2023-02-08T13:30:26.064Z,1.51
2023-02-08T13:32:05.119Z,1.50
2023-02-08T13:33:59.150Z,1.53
2023-02-08T13:35:32.655Z,1.52
2023-02-08T13:37:24.602Z,1.42
2023-02-08T13:39:00.325Z,1.35
2023-02-08T13:40:35.332Z,1.36
2023-02-08T13:42:18.388Z,1.38
2023-02-08T13:43:54.568Z,1.25
2023-02-08T13:45:34.959Z,1.15
2023-02-08T13:47:07.883Z,1.13
2023-02-08T13:48:53.263Z,1.13
2023-02-08T13:50:29.268Z,1.11
2023-02-08T13:52:02.396Z,1.11
2023-02-08T13:53:40.704Z,1.01
2023-02-08T13:55:30.742Z,0.88
2023-02-08T13:57:02.688Z,0.91
2023-02-08T13:58:49.741Z,0.83
2023-02-08T14:00:25.712Z,0.78
2023-02-08T14:02:12.980Z,0.70
2023-02-08T14:04:04.849Z,0.70
2023-02-08T14:05:58.273Z,0.79
2023-02-08T14:07:44.995Z,0.77
2023-02-08T14:09:23.955Z,0.88
2023-02-08T14:11:25.442Z,0.84
2023-02-08T14:13:08.587Z,0.77
2023-02-08T14:14:40.440Z,0.87
2023-02-08T14:16:36.099Z,0.78
2023-02-08T14:18:24.231Z,0.92
2023-02-08T14:19:59.271Z,0.99
2023-02-08T14:21:43.220Z,1.00
2023-02-08T14:23:27.031Z,1.04
2023-02-08T14:25:16.512Z,1.01
2023-02-08T14:26:48.927Z,1.15
2023-02-08T14:28:38.598Z,1.13
2023-02-08T14:30:16.291Z,1.27
2023-02-08T14:31:49.414Z,1.37
2023-02-08T14:33:28.262Z,1.28
2023-02-08T14:35:04.648Z,1.35
2023-02-08T14:36:37.189Z,1.29
2023-02-08T14:38:24.020Z,1.28
2023-02-08T14:40:23.596Z,1.38
2023-02-08T14:42:01.263Z,1.46
2023-02-08T14:43:42.618Z,1.39
2023-02-08T14:45:27.671Z,1.36
2023-02-08T14:46:59.444Z,1.45
2023-02-08T14:48:35.314Z,1.50
2023-02-08T14:50:18.063Z,1.53
2023-02-08T14:52:03.098Z,1.61
2023-02-08T14:53:52.674Z,1.66
2023-02-08T14:55:29.353Z,1.74
2023-02-08T14:57:12.624Z,1.78
2023-02-08T14:58:51.309Z,1.84
2023-02-08T15:00:28.680Z,1.85
2023-02-08T15:02:12.382Z,1.88
2023-02-08T15:03:45.922Z,1.90
2023-02-08T15:05:27.103Z,1.90
2023-02-08T15:07:12.797Z,1.88
2023-02-08T15:08:52.087Z,1.91
2023-02-08T15:10:25.898Z,1.94
2023-02-08T15:12:01.619Z,1.96
2023-02-08T15:13:34.324Z,1.94
2023-02-08T15:15:15.422Z,1.92
2023-02-08T15:16:48.001Z,1.93
2023-02-08T15:18:23.877Z,1.94
2023-02-08T15:19:55.967Z,1.93
2023-02-08T15:21:31.874Z,1.87
2023-02-08T15:23:21.632Z,1.88
2023-02-08T15:24:56.523Z,1.81
2023-02-08T15:26:29.077Z,1.76
2023-02-08T15:28:03.690Z,1.62
2023-02-08T15:29:44.681Z,1.50
2023-02-08T15:31:24.124Z,1.42
2023-02-08T15:32:56.553Z,1.36
2023-02-08T15:34:28.271Z,1.31
2023-02-08T15:36:06.901Z,1.22
2023-02-08T15:37:38.663Z,1.10
2023-02-08T15:39:23.120Z,0.98
2023-02-08T15:41:11.967Z,0.73
2023-02-08T15:42:44.257Z,0.72
2023-02-08T15:44:28.019Z,0.61
2023-02-08T15:46:02.404Z,0.49
2023-02-08T15:47:38.006Z,0.43
2023-02-08T15:49:19.912Z,0.30
2023-02-08T15:50:53.597Z,0.23
2023-02-08T15:52:34.878Z,0.14
2023-02-08T15:54:08.784Z,-0.02
2023-02-08T15:55:49.387Z,-0.10
2023-02-08T15:57:32.887Z,-0.17
2023-02-08T15:59:07.194Z,-0.26
2023-02-08T16:00:43.543Z,-0.44
2023-02-08T16:02:31.179Z,-0.55
2023-02-08T16:04:12.713Z,-0.52
2023-02-08T16:06:02.715Z,-0.60
2023-02-08T16:07:41.059Z,-0.70
2023-02-08T16:09:25.519Z,-0.79
2023-02-08T16:11:23.930Z,-0.87
2023-02-08T16:13:02.201Z,-0.92
2023-02-08T16:14:50.686Z,-0.99
2023-02-08T16:16:35.546Z,-1.05
2023-02-08T16:18:29.857Z,-1.15
2023-02-08T16:20:01.932Z,-1.19
2023-02-08T16:21:41.535Z,-1.26
2023-02-08T16:23:33.931Z,-1.36
2023-02-08T16:25:24.825Z,-1.43
2023-02-08T16:27:04.900Z,-1.45
2023-02-08T16:28:36.724Z,-1.47
2023-02-08T16:30:19.972Z,-1.57
2023-02-08T16:32:11.986Z,-1.66
2023-02-08T16:33:45.113Z,-1.71
2023-02-08T16:35:27.914Z,-1.77
2023-02-08T16:37:00.720Z,-1.78
2023-02-08T16:38:34.521Z,-1.81
2023-02-08T16:40:45.047Z,-1.90
2023-02-08T16:42:22.280Z,-1.93
2023-02-08T16:44:22.696Z,-2.00
2023-02-08T16:46:21.270Z,-2.06
2023-02-08T16:47:56.940Z,-2.06
2023-02-08T16:49:30.149Z,-2.08
2023-02-08T16:51:14.874Z,-2.13
2023-02-08T16:52:59.924Z,-2.16
2023-02-08T16:54:31.622Z,-2.16
2023-02-08T16:56:03.645Z,-2.21
2023-02-08T16:57:50.447Z,-2.23
2023-02-08T16:59:22.197Z,-2.26
2023-02-08T17:00:53.989Z,-2.29
2023-02-08T17:02:25.731Z,-2.33
2023-02-08T17:03:57.511Z,-2.36
2023-02-08T17:05:36.685Z,-2.45
2023-02-08T17:07:18.431Z,-2.49
2023-02-08T17:08:50.122Z,-2.51
2023-02-08T17:10:28.626Z,-2.55
2023-02-08T17:12:01.206Z,-2.60
2023-02-08T17:13:32.984Z,-2.62
2023-02-08T17:15:04.945Z,-2.65
2023-02-08T17:16:38.096Z,-2.69
2023-02-08T17:18:11.810Z,-2.71
2023-02-08T17:19:44.550Z,-2.73
2023-02-08T17:21:17.128Z,-2.75
2023-02-08T17:22:50.800Z,-2.77
2023-02-08T17:24:22.485Z,-2.80
2023-02-08T17:25:54.266Z,-2.82
2023-02-08T17:27:26.163Z,-2.85
2023-02-08T17:28:59.275Z,-2.88
2023-02-08T17:30:37.814Z,-2.95
2023-02-08T17:32:09.508Z,-2.99
2023-02-08T17:33:41.310Z,-3.05
2023-02-08T17:35:17.569Z,-3.12
2023-02-08T17:36:49.599Z,-3.17
2023-02-08T17:38:21.690Z,-3.23
2023-02-08T17:39:53.613Z,-3.31
2023-02-08T17:41:25.661Z,-3.37
2023-02-08T17:42:57.358Z,-3.43
2023-02-08T17:44:29.499Z,-3.48
2023-02-08T17:46:01.323Z,-3.55
2023-02-08T17:47:33.566Z,-3.60
2023-02-08T17:49:05.382Z,-3.68
2023-02-08T17:50:37.233Z,-3.72
2023-02-08T17:52:08.970Z,-3.77
2023-02-08T17:53:43.583Z,-3.82
2023-02-08T17:55:16.719Z,-3.87
2023-02-08T17:56:48.461Z,-3.90
2023-02-08T17:58:20.175Z,-3.94
2023-02-08T17:59:51.993Z,-3.97
2023-02-08T18:01:26.744Z,-4.01
2023-02-08T18:03:01.145Z,-4.04
2023-02-08T18:04:33.313Z,-4.06
2023-02-08T18:06:06.223Z,-4.09
2023-02-08T18:07:39.875Z,-4.11
2023-02-08T18:09:14.091Z,-4.14
2023-02-08T18:10:45.959Z,-4.16
2023-02-08T18:12:17.672Z,-4.17
2023-02-08T18:13:51.419Z,-4.19
2023-02-08T18:15:24.217Z,-4.21
2023-02-08T18:16:57.590Z,-4.22
2023-02-08T18:18:29.289Z,-4.24
2023-02-08T18:20:01.028Z,-4.22
2023-02-08T18:21:33.300Z,-4.23
2023-02-08T18:23:05.014Z,-4.23
2023-02-08T18:24:36.704Z,-4.22
2023-02-08T18:26:14.596Z,-4.22
2023-02-08T18:27:46.416Z,-4.19
2023-02-08T18:29:18.179Z,-4.18
2023-02-08T18:30:49.997Z,-4.17
2023-02-08T18:32:22.196Z,-4.15
2023-02-08T18:33:55.229Z,-4.14
2023-02-08T18:35:26.917Z,-4.16
2023-02-08T18:36:58.654Z,-4.15
2023-02-08T18:38:30.922Z,-4.16
2023-02-08T18:40:03.352Z,-4.17
2023-02-08T18:41:35.067Z,-4.19
2023-02-08T18:43:06.727Z,-4.20
2023-02-08T18:44:38.941Z,-4.23
2023-02-08T18:46:14.354Z,-4.23
2023-02-08T18:47:46.064Z,-4.23
2023-02-08T18:49:17.877Z,-4.22
2023-02-08T18:50:57.994Z,-4.25
2023-02-08T18:52:31.545Z,-4.21
2023-02-08T18:54:03.803Z,-4.20
2023-02-08T18:55:35.539Z,-4.20
2023-02-08T18:57:09.653Z,-4.17
2023-02-08T18:58:41.673Z,-4.13
2023-02-08T19:00:14.246Z,-4.14
2023-02-08T19:01:46.046Z,-4.12
2023-02-08T19:03:19.069Z,-4.08
2023-02-08T19:04:50.782Z,-4.07
2023-02-08T19:06:25.118Z,-4.00
2023-02-08T19:07:56.851Z,-4.00
2023-02-08T19:09:28.550Z,-3.97
2023-02-08T19:11:00.312Z,-3.94
2023-02-08T19:12:32.180Z,-3.91
2023-02-08T19:14:07.226Z,-3.93
2023-02-08T19:15:41.360Z,-3.91
2023-02-08T19:17:14.943Z,-3.87
2023-02-08T19:18:46.773Z,-3.84
2023-02-08T19:20:18.482Z,-3.86
2023-02-08T19:21:50.256Z,-3.84
2023-02-08T19:23:22.022Z,-3.81
2023-02-08T19:24:54.381Z,-3.80
2023-02-08T19:26:28.971Z,-3.75
2023-02-08T19:28:00.772Z,-3.74
2023-02-08T19:29:34.519Z,-3.71
2023-02-08T19:31:12.063Z,-3.74
2023-02-08T19:32:43.947Z,-3.71
2023-02-08T19:34:17.629Z,-3.69
2023-02-08T19:35:49.568Z,-3.67
2023-02-08T19:37:21.470Z,-3.70
2023-02-08T19:38:54.057Z,-3.66
2023-02-08T19:40:25.759Z,-3.68
2023-02-08T19:41:59.046Z,-3.65
2023-02-08T19:43:31.182Z,-3.69
2023-02-08T19:45:03.582Z,-3.63
2023-02-08T19:46:38.844Z,-3.63
2023-02-08T19:48:10.714Z,-3.63
2023-02-08T19:49:43.103Z,-3.61
2023-02-08T19:51:14.974Z,-3.60
2023-02-08T19:52:46.696Z,-3.61
2023-02-08T19:54:19.759Z,-3.60
2023-02-08T19:55:59.566Z,-3.61
2023-02-08T19:57:31.292Z,-3.60
2023-02-08T19:59:28.057Z,-3.58
2023-02-08T20:00:59.905Z,-3.60
2023-02-08T20:02:31.851Z,-3.61
2023-02-08T20:04:06.127Z,-3.63
2023-02-08T20:05:37.972Z,-3.66
2023-02-08T20:07:10.431Z,-3.67
2023-02-08T20:08:42.279Z,-3.70
2023-02-08T20:10:14.005Z,-3.75
2023-02-08T20:12:01.000Z,-3.78
2023-02-08T20:13:32.784Z,-3.83
2023-02-08T20:15:04.927Z,-3.87
2023-02-08T20:16:36.746Z,-3.93
2023-02-08T20:18:10.470Z,-3.99
2023-02-08T20:19:42.184Z,-4.03
2023-02-08T20:21:14.092Z,-4.09
2023-02-08T20:22:45.818Z,-4.15
2023-02-08T20:24:18.264Z,-4.19
2023-02-08T20:25:50.027Z,-4.25
2023-02-08T20:27:21.802Z,-4.31
2023-02-08T20:28:56.617Z,-4.35
2023-02-08T20:30:28.444Z,-4.41
2023-02-08T20:32:00.241Z,-4.46
2023-02-08T20:33:31.943Z,-4.54
2023-02-08T20:35:04.395Z,-4.57
2023-02-08T20:36:49.566Z,-4.63
2023-02-08T20:38:26.376Z,-4.67
2023-02-08T20:39:58.136Z,-4.70
2023-02-08T20:41:31.267Z,-4.74
2023-02-08T20:43:03.909Z,-4.79
2023-02-08T20:44:35.714Z,-4.85
2023-02-08T20:46:14.495Z,-4.89
2023-02-08T20:47:46.993Z,-4.92
2023-02-08T20:49:22.718Z,-4.95
2023-02-08T20:50:54.424Z,-4.98
2023-02-08T20:52:26.205Z,-5.04
2023-02-08T20:54:00.146Z,-5.06
2023-02-08T20:55:33.473Z,-5.07
2023-02-08T20:57:05.430Z,-5.06